createdAt,value
2018-11-28T12:24:40.979Z,13.50
2018-11-28T12:29:45.145Z,13.60
2018-11-28T12:34:50.521Z,13.70
2018-11-28T12:39:53.607Z,13.50
2018-11-28T12:44:57.726Z,13.60
2018-11-28T12:50:01.987Z,13.80
2018-11-28T12:55:06.759Z,13.60
2018-11-28T13:00:15.761Z,13.70
2018-11-28T13:05:21.171Z,13.90
2018-11-28T13:10:29.555Z,14.10
2018-11-28T13:15:33.763Z,14.30
2018-11-28T13:20:38.363Z,14.30
2018-11-28T13:25:42.665Z,14.00
2018-11-28T13:30:48.188Z,14.00
2018-11-28T13:35:51.984Z,14.10
2018-11-28T13:40:56.212Z,13.80
2018-11-28T13:46:00.395Z,13.50
2018-11-28T13:51:04.726Z,13.50
2018-11-28T14:01:13.242Z,13.40
2018-11-28T14:06:17.523Z,13.60
2018-11-28T14:11:21.762Z,13.30
2018-11-28T14:16:26.044Z,13.40
2018-11-28T14:21:30.463Z,13.30
2018-11-28T14:28:32.762Z,13.20
2018-11-28T14:33:37.103Z,13.20
2018-11-28T14:38:41.255Z,13.30
2018-11-28T14:43:45.562Z,13.20
2018-11-28T14:48:49.742Z,13.20
2018-11-28T14:53:54.002Z,13.30
2018-11-28T14:58:58.126Z,13.20
2018-11-28T15:04:02.524Z,13.10
2018-11-28T15:09:13.982Z,12.90
2018-11-28T15:14:18.282Z,12.90
2018-11-28T15:19:22.463Z,13.00
2018-11-28T15:24:27.438Z,12.90
2018-11-28T15:29:31.704Z,12.90
2018-11-28T15:34:35.883Z,12.90
2018-11-28T15:39:40.003Z,12.80
2018-11-28T15:44:44.175Z,12.70
2018-11-28T15:49:48.583Z,12.50
2018-11-28T15:54:52.963Z,12.40
2018-11-28T15:59:57.203Z,12.30
2018-11-28T16:05:02.143Z,12.20
2018-11-28T16:10:12.923Z,12.30
2018-11-28T16:15:22.123Z,12.30
2018-11-28T16:20:26.464Z,12.30
2018-11-28T16:25:30.763Z,12.20
2018-11-28T16:30:35.018Z,12.20
2018-11-28T16:35:39.505Z,12.30
2018-11-28T16:40:43.722Z,12.30
2018-11-28T16:45:48.042Z,12.20
2018-11-28T16:50:52.323Z,12.20
2018-11-28T16:55:56.622Z,12.30
2018-11-28T17:01:00.789Z,12.20
2018-11-28T17:06:05.442Z,12.20
2018-11-28T17:11:09.782Z,12.20
2018-11-28T17:16:14.063Z,12.10
2018-11-28T17:21:18.203Z,12.00
2018-11-28T17:26:22.363Z,12.00
2018-11-28T17:31:26.742Z,12.00
2018-11-28T17:36:31.003Z,11.50
2018-11-28T17:41:35.342Z,11.30
2018-11-28T17:46:39.602Z,11.20
2018-11-28T17:51:43.910Z,11.10
2018-11-28T17:56:48.282Z,11.10
2018-11-28T18:01:52.702Z,11.00
2018-11-28T18:06:57.002Z,10.90
2018-11-28T18:12:01.123Z,10.90
2018-11-28T18:17:05.662Z,11.00
2018-11-28T18:22:10.002Z,11.20
2018-11-28T18:27:14.242Z,11.20
2018-11-28T18:32:18.594Z,11.10
2018-11-28T18:37:24.351Z,11.00
2018-11-28T18:42:27.083Z,10.90
2018-11-28T18:47:31.462Z,10.90
2018-11-28T18:52:35.742Z,10.90
2018-11-28T18:57:40.501Z,10.70
2018-11-28T19:02:44.843Z,10.60
2018-11-28T19:07:49.122Z,10.50
2018-11-28T19:12:54.224Z,10.60
2018-11-28T19:18:00.361Z,10.80
2018-11-28T19:23:04.621Z,10.90
2018-11-28T19:28:08.887Z,11.00
2018-11-28T19:33:14.408Z,11.00
2018-11-28T19:38:18.701Z,11.10
2018-11-28T19:43:22.943Z,11.10
2018-11-28T19:48:27.283Z,11.00
2018-11-28T19:53:31.701Z,10.80
2018-11-28T19:58:35.862Z,10.70
2018-11-28T20:03:40.142Z,10.70
2018-11-28T20:08:45.095Z,10.70
2018-11-28T20:13:49.461Z,10.70
2018-11-28T20:18:53.882Z,10.70
2018-11-28T20:23:58.162Z,10.70
2018-11-28T20:29:02.641Z,10.70
2018-11-28T20:34:07.161Z,10.80
2018-11-28T20:39:11.541Z,10.80
2018-11-28T20:44:15.702Z,10.80
2018-11-28T20:49:20.022Z,10.90
2018-11-28T20:54:24.322Z,10.90
2018-11-28T20:59:28.601Z,10.90
2018-11-28T21:04:33.022Z,10.90
2018-11-28T21:09:41.424Z,10.80
2018-11-28T21:14:45.782Z,10.80
2018-11-28T21:19:49.942Z,10.80
2018-11-28T21:24:54.261Z,10.80
2018-11-28T21:29:58.562Z,10.90
2018-11-28T21:35:02.882Z,10.90
2018-11-28T21:40:07.581Z,10.90
2018-11-28T21:45:14.282Z,11.00
2018-11-28T21:50:19.502Z,11.00
2018-11-28T21:55:26.981Z,11.00
2018-11-28T22:00:31.333Z,11.00
2018-11-28T22:05:35.664Z,10.90
2018-11-28T22:10:39.982Z,11.00
2018-11-28T22:15:44.282Z,11.10
2018-11-28T22:20:48.602Z,11.20
2018-11-28T22:25:52.962Z,11.30
2018-11-28T22:30:57.322Z,11.30
2018-11-28T22:36:01.661Z,11.40
2018-11-28T22:41:05.842Z,11.40
2018-11-28T22:46:10.022Z,11.40
2018-11-28T22:51:14.323Z,11.50
2018-11-28T22:56:18.701Z,11.60
2018-11-28T23:01:30.022Z,11.60
2018-11-28T23:06:34.382Z,11.60
2018-11-28T23:11:38.722Z,11.70
2018-11-28T23:16:43.102Z,11.70
2018-11-28T23:21:50.076Z,11.70
2018-11-28T23:26:51.653Z,11.50
2018-11-28T23:31:56.061Z,11.40
2018-11-28T23:37:00.270Z,11.30
2018-11-28T23:42:04.561Z,11.10
2018-11-28T23:47:08.941Z,10.90
2018-11-28T23:52:13.182Z,10.80
2018-11-28T23:57:17.542Z,10.70
